SKY280 ROIG-ROAH
Flight info
| Callsign | SKY280 |
|---|---|
| Flight time | 0h 35m |
| Altitude | 25000 |
| Route | MJC Y57 VELNO |
| Aircraft | B738/M-SDE2E3FGHIRWXY/LB1 |
Departure
| Time | 2026-05-03 20:27 |
|---|---|
| Airport | New Ishigaki Airport (ROIG) |
Arrival
| Time | 2026-05-03 21:02 |
|---|---|
| Airport | Naha International Airport (ROAH) |
| Time | Latitude | Longitude | Altitude | Speed | Heading |
|---|---|---|---|---|---|
| 2026-05-03 20:15 | 24.39133 | 124.24516 | 107 ft | 0 kts | 125° |
| 2026-05-03 20:21 | 24.39136 | 124.24511 | 108 ft | 2 kts | 125° |
| 2026-05-03 20:21 | 24.39145 | 124.24497 | 109 ft | 2 kts | 126° |
| 2026-05-03 20:21 | 24.39155 | 124.24482 | 107 ft | 2 kts | 127° |
| 2026-05-03 20:22 | 24.39165 | 124.24468 | 108 ft | 2 kts | 128° |
| 2026-05-03 20:22 | 24.39175 | 124.24454 | 107 ft | 2 kts | 129° |
| 2026-05-03 20:22 | 24.39186 | 124.24440 | 106 ft | 2 kts | 131° |
| 2026-05-03 20:22 | 24.39197 | 124.24427 | 109 ft | 2 kts | 135° |
| 2026-05-03 20:23 | 24.39209 | 124.24415 | 109 ft | 2 kts | 144° |
| 2026-05-03 20:23 | 24.39224 | 124.24407 | 108 ft | 2 kts | 189° |
| 2026-05-03 20:23 | 24.39231 | 124.24410 | 108 ft | 0 kts | 217° |
| 2026-05-03 20:24 | 24.39214 | 124.24395 | 109 ft | 9 kts | 217° |
| 2026-05-03 20:25 | 24.39135 | 124.24332 | 109 ft | 18 kts | 214° |
| 2026-05-03 20:25 | 24.39030 | 124.24253 | 111 ft | 18 kts | 215° |
| 2026-05-03 20:25 | 24.38932 | 124.24171 | 112 ft | 17 kts | 217° |
| 2026-05-03 20:25 | 24.38849 | 124.24083 | 112 ft | 17 kts | 254° |
| 2026-05-03 20:26 | 24.38896 | 124.23974 | 115 ft | 16 kts | 307° |
| 2026-05-03 20:26 | 24.38949 | 124.23965 | 114 ft | 1 kts | 34° |
| 2026-05-03 20:26 | 24.39013 | 124.24014 | 114 ft | 43 kts | 35° |
| 2026-05-03 20:26 | 24.39493 | 124.24387 | 107 ft | 123 kts | 34° |
| 2026-05-03 20:27 | 24.40354 | 124.25058 | 355 ft | 164 kts | 35° |
| 2026-05-03 20:27 | 24.41305 | 124.25801 | 1277 ft | 161 kts | 43° |
| 2026-05-03 20:27 | 24.41868 | 124.26855 | 2299 ft | 166 kts | 68° |
| 2026-05-03 20:27 | 24.42270 | 124.28118 | 2788 ft | 190 kts | 71° |
| 2026-05-03 20:28 | 24.42741 | 124.29587 | 3032 ft | 217 kts | 70° |
| 2026-05-03 20:28 | 24.43254 | 124.31187 | 3359 ft | 233 kts | 70° |
| 2026-05-03 20:28 | 24.43801 | 124.32940 | 3741 ft | 247 kts | 71° |
| 2026-05-03 20:28 | 24.44421 | 124.34774 | 4025 ft | 270 kts | 69° |
| 2026-05-03 20:29 | 24.45137 | 124.36823 | 4237 ft | 299 kts | 70° |
| 2026-05-03 20:29 | 24.45875 | 124.38972 | 5098 ft | 300 kts | 70° |
| 2026-05-03 20:29 | 24.46591 | 124.41095 | 6154 ft | 295 kts | 70° |
| 2026-05-03 20:29 | 24.47325 | 124.43192 | 7063 ft | 294 kts | 70° |
| 2026-05-03 20:30 | 24.48078 | 124.45305 | 7734 ft | 302 kts | 70° |
| 2026-05-03 20:30 | 24.48854 | 124.47490 | 8376 ft | 311 kts | 69° |
| 2026-05-03 20:30 | 24.49637 | 124.49709 | 9172 ft | 313 kts | 70° |
| 2026-05-03 20:30 | 24.50417 | 124.51952 | 9980 ft | 315 kts | 69° |
| 2026-05-03 20:31 | 24.51227 | 124.54206 | 10602 ft | 323 kts | 69° |
| 2026-05-03 20:31 | 24.52080 | 124.56577 | 10839 ft | 345 kts | 69° |
| 2026-05-03 20:31 | 24.52981 | 124.59085 | 11235 ft | 359 kts | 69° |
| 2026-05-03 20:31 | 24.53909 | 124.61689 | 11573 ft | 375 kts | 68° |
| 2026-05-03 20:32 | 24.54895 | 124.64423 | 11761 ft | 393 kts | 68° |
| 2026-05-03 20:32 | 24.55934 | 124.67277 | 11892 ft | 412 kts | 68° |
| 2026-05-03 20:32 | 24.57016 | 124.70244 | 12161 ft | 422 kts | 68° |
| 2026-05-03 20:32 | 24.58122 | 124.73248 | 12675 ft | 427 kts | 68° |
| 2026-05-03 20:33 | 24.59265 | 124.76318 | 12882 ft | 438 kts | 68° |
| 2026-05-03 20:33 | 24.60422 | 124.79398 | 13204 ft | 443 kts | 68° |
| 2026-05-03 20:33 | 24.61561 | 124.82543 | 13643 ft | 447 kts | 69° |
| 2026-05-03 20:33 | 24.62698 | 124.85729 | 14025 ft | 451 kts | 68° |
| 2026-05-03 20:34 | 24.63974 | 124.88928 | 14235 ft | 455 kts | 64° |
| 2026-05-03 20:34 | 24.65406 | 124.92081 | 13987 ft | 472 kts | 61° |
| 2026-05-03 20:34 | 24.67001 | 124.95176 | 14850 ft | 458 kts | 59° |
| 2026-05-03 20:34 | 24.68610 | 124.98172 | 15557 ft | 454 kts | 58° |
| 2026-05-03 20:35 | 24.70242 | 125.01167 | 15913 ft | 458 kts | 58° |
| 2026-05-03 20:35 | 24.71884 | 125.04182 | 16294 ft | 462 kts | 58° |
| 2026-05-03 20:35 | 24.72978 | 125.06201 | 16518 ft | 464 kts | 59° |
| 2026-05-03 20:35 | 24.75187 | 125.10309 | 16999 ft | 468 kts | 59° |
| 2026-05-03 20:36 | 24.76809 | 125.13349 | 17360 ft | 471 kts | 59° |
| 2026-05-03 20:36 | 24.77941 | 125.15477 | 17609 ft | 473 kts | 59° |
| 2026-05-03 20:36 | 24.79605 | 125.18613 | 17957 ft | 476 kts | 59° |
| 2026-05-03 20:36 | 24.81277 | 125.21771 | 18305 ft | 479 kts | 59° |
| 2026-05-03 20:37 | 24.83508 | 125.25987 | 18719 ft | 482 kts | 59° |
| 2026-05-03 20:37 | 24.84652 | 125.28150 | 18914 ft | 484 kts | 59° |
| 2026-05-03 20:37 | 24.86351 | 125.31362 | 19179 ft | 487 kts | 59° |
| 2026-05-03 20:37 | 24.88064 | 125.34600 | 19459 ft | 489 kts | 59° |
| 2026-05-03 20:38 | 24.89754 | 125.37798 | 19743 ft | 492 kts | 59° |
| 2026-05-03 20:38 | 24.91485 | 125.41061 | 20022 ft | 494 kts | 59° |
| 2026-05-03 20:38 | 24.93226 | 125.44334 | 20301 ft | 496 kts | 59° |
| 2026-05-03 20:38 | 24.94977 | 125.47622 | 20601 ft | 498 kts | 59° |
| 2026-05-03 20:39 | 24.96733 | 125.50920 | 20939 ft | 498 kts | 58° |
| 2026-05-03 20:39 | 24.98479 | 125.54223 | 21222 ft | 500 kts | 59° |
| 2026-05-03 20:39 | 25.00219 | 125.57560 | 21469 ft | 502 kts | 59° |
| 2026-05-03 20:39 | 25.01968 | 125.60927 | 21568 ft | 509 kts | 59° |
| 2026-05-03 20:40 | 25.03737 | 125.64327 | 21754 ft | 511 kts | 59° |
| 2026-05-03 20:40 | 25.05489 | 125.67687 | 22042 ft | 512 kts | 59° |
| 2026-05-03 20:40 | 25.07271 | 125.71098 | 22313 ft | 513 kts | 59° |
| 2026-05-03 20:40 | 25.09059 | 125.74514 | 22536 ft | 515 kts | 59° |
| 2026-05-03 20:41 | 25.10861 | 125.77955 | 22778 ft | 516 kts | 59° |
| 2026-05-03 20:41 | 25.12656 | 125.81384 | 23018 ft | 517 kts | 59° |
| 2026-05-03 20:41 | 25.14458 | 125.84829 | 23226 ft | 519 kts | 59° |
| 2026-05-03 20:41 | 25.16268 | 125.88291 | 23411 ft | 521 kts | 59° |
| 2026-05-03 20:42 | 25.18088 | 125.91776 | 23538 ft | 525 kts | 59° |
| 2026-05-03 20:42 | 25.19916 | 125.95280 | 23634 ft | 528 kts | 59° |
| 2026-05-03 20:42 | 25.21749 | 125.98797 | 23813 ft | 529 kts | 59° |
| 2026-05-03 20:42 | 25.23565 | 126.02283 | 23797 ft | 530 kts | 59° |
| 2026-05-03 20:43 | 25.25418 | 126.05846 | 23773 ft | 527 kts | 59° |
| 2026-05-03 20:43 | 25.27218 | 126.09308 | 23780 ft | 526 kts | 59° |
| 2026-05-03 20:43 | 25.29045 | 126.12823 | 23780 ft | 527 kts | 59° |
| 2026-05-03 20:43 | 25.30872 | 126.16341 | 23776 ft | 528 kts | 59° |
| 2026-05-03 20:44 | 25.32703 | 126.19869 | 23776 ft | 528 kts | 59° |
| 2026-05-03 20:44 | 25.34529 | 126.23390 | 23770 ft | 529 kts | 59° |
| 2026-05-03 20:44 | 25.36356 | 126.26918 | 23717 ft | 527 kts | 59° |
| 2026-05-03 20:44 | 25.38148 | 126.30382 | 23682 ft | 508 kts | 59° |
| 2026-05-03 20:45 | 25.39868 | 126.33713 | 23184 ft | 491 kts | 59° |
| 2026-05-03 20:45 | 25.41554 | 126.36975 | 22105 ft | 486 kts | 59° |
| 2026-05-03 20:45 | 25.43237 | 126.40230 | 20819 ft | 492 kts | 59° |
| 2026-05-03 20:45 | 25.44908 | 126.43464 | 20230 ft | 487 kts | 59° |
| 2026-05-03 20:46 | 25.46586 | 126.46715 | 19550 ft | 485 kts | 59° |
| 2026-05-03 20:46 | 25.48259 | 126.49958 | 18887 ft | 481 kts | 59° |
| 2026-05-03 20:46 | 25.49911 | 126.53165 | 18241 ft | 478 kts | 59° |
| 2026-05-03 20:46 | 25.51555 | 126.56358 | 17494 ft | 475 kts | 60° |
| 2026-05-03 20:47 | 25.53188 | 126.59533 | 16834 ft | 471 kts | 60° |
| 2026-05-03 20:47 | 25.54801 | 126.62670 | 16179 ft | 466 kts | 60° |
| 2026-05-03 20:47 | 25.56376 | 126.65736 | 15553 ft | 461 kts | 60° |
| 2026-05-03 20:47 | 25.57949 | 126.68799 | 14925 ft | 456 kts | 60° |
| 2026-05-03 20:48 | 25.59505 | 126.71832 | 14376 ft | 450 kts | 60° |
| 2026-05-03 20:48 | 25.61050 | 126.74845 | 13754 ft | 446 kts | 60° |
| 2026-05-03 20:48 | 25.62577 | 126.77826 | 12958 ft | 446 kts | 60° |
| 2026-05-03 20:48 | 25.64092 | 126.80786 | 12426 ft | 437 kts | 60° |
| 2026-05-03 20:49 | 25.65597 | 126.83727 | 11802 ft | 435 kts | 60° |
| 2026-05-03 20:49 | 25.67067 | 126.86602 | 11607 ft | 419 kts | 60° |
| 2026-05-03 20:49 | 25.68475 | 126.89357 | 11501 ft | 403 kts | 60° |
| 2026-05-03 20:49 | 25.69823 | 126.91997 | 11404 ft | 389 kts | 60° |
| 2026-05-03 20:50 | 25.71133 | 126.94562 | 11315 ft | 375 kts | 60° |
| 2026-05-03 20:50 | 25.72397 | 126.97040 | 11228 ft | 363 kts | 60° |
| 2026-05-03 20:50 | 25.73612 | 126.99424 | 10953 ft | 350 kts | 60° |
| 2026-05-03 20:50 | 25.74810 | 127.01773 | 10378 ft | 349 kts | 60° |
| 2026-05-03 20:51 | 25.75999 | 127.04109 | 9822 ft | 347 kts | 60° |
| 2026-05-03 20:51 | 25.77183 | 127.06434 | 9258 ft | 343 kts | 60° |
| 2026-05-03 20:51 | 25.78350 | 127.08728 | 8734 ft | 340 kts | 60° |
| 2026-05-03 20:51 | 25.79490 | 127.10969 | 8211 ft | 336 kts | 60° |
| 2026-05-03 20:52 | 25.80636 | 127.13224 | 7688 ft | 333 kts | 60° |
| 2026-05-03 20:52 | 25.81766 | 127.15447 | 7167 ft | 329 kts | 60° |
| 2026-05-03 20:52 | 25.82887 | 127.17655 | 6635 ft | 327 kts | 60° |
| 2026-05-03 20:52 | 25.84002 | 127.19852 | 6110 ft | 325 kts | 60° |
| 2026-05-03 20:53 | 25.85103 | 127.22022 | 5603 ft | 321 kts | 60° |
| 2026-05-03 20:53 | 25.86197 | 127.24179 | 5035 ft | 320 kts | 60° |
| 2026-05-03 20:53 | 25.87270 | 127.26295 | 4773 ft | 308 kts | 60° |
| 2026-05-03 20:53 | 25.88301 | 127.28331 | 4503 ft | 297 kts | 60° |
| 2026-05-03 20:54 | 25.89299 | 127.30300 | 4238 ft | 288 kts | 60° |
| 2026-05-03 20:54 | 25.91138 | 127.34172 | 3760 ft | 282 kts | 63° |
| 2026-05-03 20:54 | 25.92007 | 127.36089 | 3519 ft | 279 kts | 64° |
| 2026-05-03 20:55 | 25.92871 | 127.37997 | 3286 ft | 278 kts | 64° |
| 2026-05-03 20:55 | 25.93745 | 127.39924 | 3039 ft | 277 kts | 63° |
| 2026-05-03 20:55 | 25.94612 | 127.41829 | 2799 ft | 274 kts | 62° |
| 2026-05-03 20:55 | 25.95480 | 127.43705 | 2580 ft | 271 kts | 62° |
| 2026-05-03 20:56 | 25.96327 | 127.45572 | 2323 ft | 269 kts | 62° |
| 2026-05-03 20:56 | 25.97154 | 127.47397 | 2091 ft | 258 kts | 59° |
| 2026-05-03 20:56 | 25.97948 | 127.49146 | 2011 ft | 248 kts | 60° |
| 2026-05-03 20:56 | 25.98690 | 127.50780 | 2019 ft | 227 kts | 62° |
| 2026-05-03 20:57 | 25.99375 | 127.52286 | 1995 ft | 211 kts | 59° |
| 2026-05-03 20:57 | 26.00026 | 127.53714 | 2014 ft | 202 kts | 60° |
| 2026-05-03 20:57 | 26.00631 | 127.55039 | 1997 ft | 194 kts | 60° |
| 2026-05-03 20:57 | 26.01248 | 127.56390 | 2026 ft | 196 kts | 60° |
| 2026-05-03 20:58 | 26.01860 | 127.57730 | 2005 ft | 192 kts | 60° |
| 2026-05-03 20:58 | 26.02486 | 127.59098 | 2032 ft | 208 kts | 60° |
| 2026-05-03 20:58 | 26.03160 | 127.60575 | 2032 ft | 224 kts | 59° |
| 2026-05-03 20:58 | 26.03889 | 127.62168 | 2012 ft | 230 kts | 61° |
| 2026-05-03 20:59 | 26.04858 | 127.63472 | 1968 ft | 209 kts | 26° |
| 2026-05-03 20:59 | 26.06138 | 127.63761 | 2002 ft | 177 kts | 360° |
| 2026-05-03 20:59 | 26.07293 | 127.63801 | 2014 ft | 156 kts | 0° |
| 2026-05-03 20:59 | 26.08349 | 127.63797 | 1853 ft | 146 kts | 358° |
| 2026-05-03 21:00 | 26.09364 | 127.63757 | 1649 ft | 147 kts | 359° |
| 2026-05-03 21:00 | 26.10048 | 127.63725 | 1537 ft | 145 kts | 359° |
| 2026-05-03 21:00 | 26.11383 | 127.63662 | 1271 ft | 142 kts | 359° |
| 2026-05-03 21:00 | 26.12358 | 127.63615 | 1081 ft | 139 kts | 358° |
| 2026-05-03 21:01 | 26.13352 | 127.63568 | 910 ft | 148 kts | 359° |
| 2026-05-03 21:01 | 26.14395 | 127.63528 | 722 ft | 151 kts | 360° |
| 2026-05-03 21:01 | 26.15427 | 127.63470 | 534 ft | 146 kts | 358° |
| 2026-05-03 21:01 | 26.16424 | 127.63448 | 356 ft | 143 kts | 356° |
| 2026-05-03 21:02 | 26.17427 | 127.63389 | 162 ft | 146 kts | 357° |
| 2026-05-03 21:02 | 26.18432 | 127.63339 | 22 ft | 134 kts | 358° |
| 2026-05-03 21:02 | 26.19199 | 127.63300 | 20 ft | 79 kts | 358° |
| 2026-05-03 21:02 | 26.19595 | 127.63293 | 23 ft | 32 kts | 13° |
| 2026-05-03 21:03 | 26.19775 | 127.63367 | 24 ft | 22 kts | 26° |
| 2026-05-03 21:03 | 26.19847 | 127.63407 | 22 ft | 11 kts | 26° |
| 2026-05-03 21:03 | 26.19915 | 127.63444 | 23 ft | 11 kts | 25° |
| 2026-05-03 21:03 | 26.19986 | 127.63452 | 22 ft | 10 kts | 356° |
| 2026-05-03 21:04 | 26.20064 | 127.63448 | 21 ft | 14 kts | 359° |
| 2026-05-03 21:04 | 26.20178 | 127.63442 | 21 ft | 17 kts | 357° |
| 2026-05-03 21:04 | 26.20291 | 127.63455 | 21 ft | 17 kts | 44° |
| 2026-05-03 21:04 | 26.20307 | 127.63578 | 21 ft | 16 kts | 87° |
| 2026-05-03 21:05 | 26.20312 | 127.63700 | 21 ft | 15 kts | 87° |
| 2026-05-03 21:05 | 26.20318 | 127.63810 | 21 ft | 14 kts | 86° |
| 2026-05-03 21:05 | 26.20323 | 127.63915 | 21 ft | 13 kts | 88° |
| 2026-05-03 21:05 | 26.20325 | 127.64018 | 21 ft | 16 kts | 89° |
| 2026-05-03 21:06 | 26.20329 | 127.64154 | 21 ft | 18 kts | 87° |
| 2026-05-03 21:06 | 26.20336 | 127.64287 | 21 ft | 17 kts | 75° |
| 2026-05-03 21:06 | 26.20438 | 127.64321 | 21 ft | 16 kts | 355° |
| 2026-05-03 21:06 | 26.20548 | 127.64315 | 21 ft | 16 kts | 4° |
| 2026-05-03 21:07 | 26.20624 | 127.64381 | 23 ft | 14 kts | 82° |
| 2026-05-03 21:07 | 26.20632 | 127.64482 | 22 ft | 13 kts | 86° |
| 2026-05-03 21:07 | 26.20629 | 127.64605 | 23 ft | 23 kts | 94° |
| 2026-05-03 21:07 | 26.20653 | 127.64766 | 21 ft | 18 kts | 62° |
| 2026-05-03 21:08 | 26.20706 | 127.64842 | 21 ft | 6 kts | 47° |
| 2026-05-03 21:08 | 26.20720 | 127.64859 | 21 ft | 0 kts | 47° |